Time;durP1;ratioP1;P1;durP2;ratioP2;P2;SDS_P1;SDS_P2;PMS_P1;PMS_P2;Temp;Humidity;BMP_temperature;BMP_pressure;BME280_temperature;BME280_humidity;BME280_pressure;Samples;Min_cycle;Max_cycle;Signal;HPM_P1;HPM_P2
2022/03/04 00:01:06;;;;;;;36.80;20.60;;;;;;;;;;5064643;28;24516;-52
2022/03/04 00:03:31;;;;;;;35.47;20.30;;;;;;;;;;5062066;28;24423;-52
2022/03/04 00:05:56;;;;;;;34.60;20.57;;;;;;;;;;5063669;28;24411;-51
2022/03/04 00:08:21;;;;;;;32.05;19.90;;;;;;;;;;5063641;28;24425;-52
2022/03/04 00:10:47;;;;;;;34.75;20.00;;;;;;;;;;5062691;28;24588;-52
2022/03/04 00:13:12;;;;;;;36.47;20.73;;;;;;;;;;5066707;28;25022;-51
2022/03/04 00:15:37;;;;;;;32.85;18.70;;;;;;;;;;5066087;28;24421;-52
2022/03/04 00:18:02;;;;;;;31.08;19.25;;;;;;;;;;5064593;28;24484;-52
2022/03/04 00:20:27;;;;;;;37.37;19.93;;;;;;;;;;5062114;28;24469;-51
2022/03/04 00:22:52;;;;;;;36.57;20.07;;;;;;;;;;5066231;28;24741;-51
2022/03/04 00:25:19;;;;;;;35.73;20.40;;;;;;;;;;5064864;28;24414;-51
2022/03/04 00:27:44;;;;;;;32.15;19.05;;;;;;;;;;5064421;28;24933;-52
2022/03/04 00:30:10;;;;;;;34.47;18.65;;;;;;;;;;5065847;28;24506;-52
2022/03/04 00:32:35;;;;;;;35.83;20.60;;;;;;;;;;5063088;28;24829;-51
2022/03/04 00:35:01;;;;;;;33.97;19.33;;;;;;;;;;5064912;28;24405;-51
2022/03/04 00:37:26;;;;;;;34.10;20.15;;;;;;;;;;5064075;28;24489;-51
2022/03/04 00:39:51;;;;;;;32.83;20.10;;;;;;;;;;5063181;28;24956;-51
2022/03/04 00:42:16;;;;;;;33.97;19.70;;;;;;;;;;5063257;28;24474;-51
2022/03/04 00:44:41;;;;;;;30.40;19.23;;;;;;;;;;5062515;28;24390;-52
2022/03/04 00:47:07;;;;;;;31.92;18.75;;;;;;;;;;5055832;28;24518;-51
2022/03/04 00:49:32;;;;;;;31.37;19.37;;;;;;;;;;5064658;28;24441;-51
2022/03/04 00:51:58;;;;;;;32.90;18.90;;;;;;;;;;5063490;28;24483;-52
2022/03/04 00:54:23;;;;;;;32.73;20.20;;;;;;;;;;5063809;28;24425;-52
2022/03/04 00:56:48;;;;;;;33.97;20.35;;;;;;;;;;5066147;28;24472;-51
2022/03/04 00:59:14;;;;;;;35.33;20.27;;;;;;;;;;5063805;28;24575;-53
2022/03/04 01:01:39;;;;;;;29.85;17.90;;;;;;;;;;5063183;28;24480;-51
2022/03/04 01:04:04;;;;;;;34.67;20.85;;;;;;;;;;5063689;28;24884;-52
2022/03/04 01:06:29;;;;;;;32.43;18.77;;;;;;;;;;5067187;28;24414;-51
2022/03/04 01:08:54;;;;;;;32.65;19.40;;;;;;;;;;5069060;28;24415;-51
2022/03/04 01:11:19;;;;;;;33.26;19.40;;;;;;;;;;5067042;28;24639;-52
2022/03/04 01:13:44;;;;;;;33.60;20.17;;;;;;;;;;5068794;28;24421;-51
2022/03/04 01:16:10;;;;;;;36.03;19.90;;;;;;;;;;5067736;28;24480;-52
2022/03/04 01:18:35;;;;;;;29.87;18.90;;;;;;;;;;5068949;28;24441;-52
2022/03/04 01:21:00;;;;;;;34.25;20.15;;;;;;;;;;5065689;28;24502;-51
2022/03/04 01:23:25;;;;;;;29.42;19.88;;;;;;;;;;5067311;28;24423;-51
2022/03/04 01:25:54;;;;;;;32.70;21.00;;;;;;;;;;5068951;28;24840;-52
2022/03/04 01:28:20;;;;;;;31.17;18.88;;;;;;;;;;5068915;28;24492;-52
2022/03/04 01:30:45;;;;;;;29.50;19.73;;;;;;;;;;5069063;28;24918;-52
2022/03/04 01:33:10;;;;;;;32.40;19.47;;;;;;;;;;5068661;28;24418;-51
2022/03/04 01:35:36;;;;;;;33.13;21.45;;;;;;;;;;5068622;28;24421;-51
2022/03/04 01:38:01;;;;;;;32.85;21.77;;;;;;;;;;5066362;28;24469;-51
2022/03/04 01:40:26;;;;;;;31.43;20.60;;;;;;;;;;5066927;28;24425;-52
2022/03/04 01:42:51;;;;;;;33.13;22.38;;;;;;;;;;5068242;28;25045;-51
2022/03/04 01:45:17;;;;;;;34.30;21.10;;;;;;;;;;5066813;28;24960;-52
2022/03/04 01:47:42;;;;;;;35.57;22.50;;;;;;;;;;5068530;28;24462;-51
2022/03/04 01:50:08;;;;;;;33.90;21.47;;;;;;;;;;5066504;28;24995;-52
2022/03/04 01:52:33;;;;;;;31.23;20.33;;;;;;;;;;5066434;28;24572;-51
2022/03/04 01:54:58;;;;;;;33.53;20.42;;;;;;;;;;5067142;28;24442;-52
2022/03/04 01:57:24;;;;;;;36.15;21.67;;;;;;;;;;5068882;28;24503;-51
2022/03/04 01:59:49;;;;;;;32.97;20.50;;;;;;;;;;5068938;28;24385;-50
2022/03/04 02:02:14;;;;;;;34.28;21.63;;;;;;;;;;5068082;28;24452;-51
2022/03/04 02:04:39;;;;;;;35.53;22.70;;;;;;;;;;5068137;28;24458;-51
2022/03/04 02:07:04;;;;;;;34.13;23.70;;;;;;;;;;5068002;28;24808;-51
2022/03/04 02:09:30;;;;;;;34.57;22.83;;;;;;;;;;5068454;28;24403;-50
2022/03/04 02:11:55;;;;;;;31.00;20.80;;;;;;;;;;5068375;28;25029;-51
2022/03/04 02:14:20;;;;;;;33.28;22.13;;;;;;;;;;5067680;28;24415;-51
2022/03/04 02:16:47;;;;;;;33.70;20.80;;;;;;;;;;5067438;28;24502;-52
2022/03/04 02:19:12;;;;;;;34.03;21.23;;;;;;;;;;5067754;28;24419;-51
2022/03/04 02:21:41;;;;;;;32.43;20.57;;;;;;;;;;5067395;28;24457;-51
2022/03/04 02:24:06;;;;;;;32.37;20.10;;;;;;;;;;5064877;28;24407;-51
2022/03/04 02:26:31;;;;;;;31.27;20.40;;;;;;;;;;5066297;28;24422;-50
2022/03/04 02:28:56;;;;;;;34.57;20.70;;;;;;;;;;5068143;28;24842;-51
2022/03/04 02:31:21;;;;;;;36.50;23.17;;;;;;;;;;5067165;28;24418;-52
2022/03/04 02:33:47;;;;;;;34.67;22.30;;;;;;;;;;5065824;28;24422;-51
2022/03/04 02:36:12;;;;;;;34.00;21.53;;;;;;;;;;5067476;28;24415;-51
2022/03/04 02:38:38;;;;;;;34.83;21.70;;;;;;;;;;5067632;28;24504;-51
2022/03/04 02:41:03;;;;;;;33.27;21.63;;;;;;;;;;5066993;28;24489;-51
2022/03/04 02:43:28;;;;;;;36.17;22.77;;;;;;;;;;5067485;28;24454;-52
2022/03/04 02:45:53;;;;;;;37.13;24.33;;;;;;;;;;5065325;28;24962;-51
2022/03/04 02:48:19;;;;;;;36.40;21.52;;;;;;;;;;5067763;28;24494;-51
2022/03/04 02:50:44;;;;;;;37.25;23.80;;;;;;;;;;5065563;28;24434;-52
2022/03/04 02:53:09;;;;;;;33.73;21.93;;;;;;;;;;5066826;28;24808;-51
2022/03/04 02:55:35;;;;;;;37.90;22.10;;;;;;;;;;5065421;28;24764;-51
2022/03/04 02:58:00;;;;;;;41.70;25.20;;;;;;;;;;5067741;28;24434;-51
2022/03/04 03:00:25;;;;;;;36.30;24.23;;;;;;;;;;5063915;28;24476;-51
2022/03/04 03:02:51;;;;;;;38.50;21.40;;;;;;;;;;5065096;28;24410;-51
2022/03/04 03:05:16;;;;;;;40.17;23.93;;;;;;;;;;5050483;28;24432;-51
2022/03/04 03:07:41;;;;;;;41.07;23.90;;;;;;;;;;5065037;28;24549;-51
2022/03/04 03:10:07;;;;;;;40.97;25.03;;;;;;;;;;5066477;28;24511;-51
2022/03/04 03:12:32;;;;;;;44.42;26.13;;;;;;;;;;5065272;28;24464;-51
2022/03/04 03:14:57;;;;;;;41.30;24.60;;;;;;;;;;5062787;28;24949;-57
2022/03/04 03:17:22;;;;;;;39.78;24.08;;;;;;;;;;5067140;28;24411;-51
2022/03/04 03:19:47;;;;;;;41.95;24.60;;;;;;;;;;5063447;28;24804;-51
2022/03/04 03:22:14;;;;;;;45.03;26.93;;;;;;;;;;5063493;28;24430;-50
2022/03/04 03:24:39;;;;;;;44.00;25.63;;;;;;;;;;5065312;28;24430;-51
2022/03/04 03:27:04;;;;;;;43.47;25.85;;;;;;;;;;5064925;28;24411;-51
2022/03/04 03:29:30;;;;;;;47.88;28.73;;;;;;;;;;5062794;28;24419;-51
2022/03/04 03:31:55;;;;;;;44.47;27.30;;;;;;;;;;5064635;28;25062;-51
2022/03/04 03:34:20;;;;;;;39.40;25.23;;;;;;;;;;5064382;28;24982;-52
2022/03/04 03:36:45;;;;;;;40.63;24.73;;;;;;;;;;5063317;28;24813;-52
2022/03/04 03:39:10;;;;;;;41.75;25.65;;;;;;;;;;5064145;28;25023;-52
2022/03/04 03:41:36;;;;;;;44.83;27.80;;;;;;;;;;5062493;28;24451;-53
2022/03/04 03:44:01;;;;;;;41.57;23.53;;;;;;;;;;5063416;28;24418;-53
2022/03/04 03:46:26;;;;;;;40.47;24.10;;;;;;;;;;5065862;28;24565;-52
2022/03/04 03:48:51;;;;;;;41.13;25.85;;;;;;;;;;5068054;28;24456;-52
2022/03/04 03:51:16;;;;;;;42.23;25.67;;;;;;;;;;5066349;28;24410;-52
2022/03/04 03:53:41;;;;;;;41.65;25.02;;;;;;;;;;5053060;28;24993;-52
2022/03/04 03:56:07;;;;;;;40.95;24.23;;;;;;;;;;5064301;28;24468;-51
2022/03/04 03:58:32;;;;;;;46.60;26.60;;;;;;;;;;5061303;28;24996;-52
2022/03/04 04:00:58;;;;;;;40.38;25.02;;;;;;;;;;5064115;28;24461;-51
2022/03/04 04:03:23;;;;;;;47.78;27.27;;;;;;;;;;5064512;28;24427;-52
2022/03/04 04:05:48;;;;;;;43.67;25.10;;;;;;;;;;5063744;28;24876;-52
2022/03/04 04:08:13;;;;;;;46.38;25.08;;;;;;;;;;5063880;28;24679;-51
2022/03/04 04:10:38;;;;;;;48.17;26.67;;;;;;;;;;5066098;28;24537;-50
2022/03/04 04:13:03;;;;;;;45.88;27.05;;;;;;;;;;5063388;28;24446;-51
2022/03/04 04:15:29;;;;;;;45.43;27.77;;;;;;;;;;5065727;28;24596;-51
2022/03/04 04:17:54;;;;;;;46.65;26.25;;;;;;;;;;5060438;28;24441;-52
2022/03/04 04:20:19;;;;;;;44.38;26.33;;;;;;;;;;5065982;28;24401;-51
2022/03/04 04:22:44;;;;;;;49.00;28.80;;;;;;;;;;5062502;28;24427;-52
2022/03/04 04:25:09;;;;;;;52.22;28.73;;;;;;;;;;5065038;28;24449;-51
2022/03/04 04:27:35;;;;;;;52.40;29.55;;;;;;;;;;5061928;28;24953;-52
2022/03/04 04:30:00;;;;;;;49.30;26.40;;;;;;;;;;5061219;28;24506;-51
2022/03/04 04:32:25;;;;;;;39.97;24.80;;;;;;;;;;5064587;28;24453;-51
2022/03/04 04:34:50;;;;;;;51.75;27.60;;;;;;;;;;5063289;28;24427;-52
2022/03/04 04:37:15;;;;;;;55.72;29.48;;;;;;;;;;5063967;28;24979;-51
2022/03/04 04:39:40;;;;;;;51.75;28.45;;;;;;;;;;5063250;28;24576;-51
2022/03/04 04:42:05;;;;;;;47.25;27.58;;;;;;;;;;5063460;28;24614;-51
2022/03/04 04:44:31;;;;;;;50.57;27.47;;;;;;;;;;5063476;28;24788;-51
2022/03/04 04:46:56;;;;;;;50.50;26.50;;;;;;;;;;5058300;28;24966;-51
2022/03/04 04:49:21;;;;;;;50.60;27.45;;;;;;;;;;5063779;28;24979;-51
2022/03/04 04:51:46;;;;;;;62.60;32.47;;;;;;;;;;5062350;28;24423;-52
2022/03/04 04:54:11;;;;;;;57.67;30.87;;;;;;;;;;5062116;28;24422;-51
2022/03/04 04:56:37;;;;;;;51.28;26.95;;;;;;;;;;5065561;28;24415;-51
2022/03/04 04:59:02;;;;;;;56.42;29.90;;;;;;;;;;5062757;28;24409;-51
2022/03/04 05:01:27;;;;;;;49.97;28.83;;;;;;;;;;5064068;28;24992;-50
2022/03/04 05:03:52;;;;;;;53.45;26.40;;;;;;;;;;5063167;28;24491;-51
2022/03/04 05:06:17;;;;;;;52.20;28.02;;;;;;;;;;5062613;28;24461;-51
2022/03/04 05:08:42;;;;;;;47.38;23.70;;;;;;;;;;5062762;28;24968;-50
2022/03/04 05:11:08;;;;;;;45.10;24.90;;;;;;;;;;5065089;28;24967;-51
2022/03/04 05:13:33;;;;;;;43.47;23.90;;;;;;;;;;5065108;28;24468;-51
2022/03/04 05:15:58;;;;;;;42.20;23.00;;;;;;;;;;5065364;28;25069;-52
2022/03/04 05:18:23;;;;;;;39.30;22.33;;;;;;;;;;5064643;28;24805;-51
2022/03/04 05:20:48;;;;;;;39.47;22.17;;;;;;;;;;5063158;28;25089;-52
2022/03/04 05:23:58;;;;;;;39.97;23.57;;;;;;;;;;5062146;28;24456;-51
2022/03/04 05:26:02;;;;;;;37.97;22.33;;;;;;;;;;5056517;28;24407;-51
2022/03/04 05:28:27;;;;;;;40.45;22.73;;;;;;;;;;5064332;28;24987;-51
2022/03/04 05:30:52;;;;;;;41.00;23.70;;;;;;;;;;5064271;28;24465;-51
2022/03/04 05:33:17;;;;;;;42.90;23.50;;;;;;;;;;5064127;28;25003;-50
2022/03/04 05:35:42;;;;;;;44.70;24.55;;;;;;;;;;5062398;28;24475;-51
2022/03/04 05:38:07;;;;;;;44.25;25.92;;;;;;;;;;5064167;28;24418;-51
2022/03/04 05:40:33;;;;;;;40.05;25.45;;;;;;;;;;5061624;28;24430;-51
2022/03/04 05:42:58;;;;;;;43.70;26.10;;;;;;;;;;5061733;28;24486;-52
2022/03/04 05:45:24;;;;;;;45.47;27.52;;;;;;;;;;5058062;28;24444;-51
2022/03/04 05:47:50;;;;;;;38.40;24.23;;;;;;;;;;5061680;28;24411;-52
2022/03/04 05:50:15;;;;;;;39.75;24.30;;;;;;;;;;5059737;28;24414;-52
2022/03/04 05:52:40;;;;;;;45.40;26.20;;;;;;;;;;5065744;28;25358;-52
2022/03/04 05:55:06;;;;;;;39.57;24.07;;;;;;;;;;5066324;28;24443;-51
2022/03/04 05:57:32;;;;;;;40.65;24.52;;;;;;;;;;5067275;28;24471;-52
2022/03/04 05:59:58;;;;;;;39.25;24.35;;;;;;;;;;5075202;28;24418;-52
2022/03/04 06:02:25;;;;;;;37.50;24.42;;;;;;;;;;5065307;28;25161;-51
2022/03/04 06:04:50;;;;;;;43.40;25.58;;;;;;;;;;5054415;28;24419;-51
2022/03/04 06:07:16;;;;;;;45.38;26.35;;;;;;;;;;5062508;28;24506;-52
2022/03/04 06:09:43;;;;;;;39.13;24.08;;;;;;;;;;5064438;28;24509;-51
2022/03/04 06:12:08;;;;;;;38.35;24.60;;;;;;;;;;5063206;28;24446;-51
2022/03/04 06:14:34;;;;;;;38.60;23.90;;;;;;;;;;5065371;28;24932;-52
2022/03/04 06:16:59;;;;;;;38.97;23.83;;;;;;;;;;5061441;28;25030;-52
2022/03/04 06:19:24;;;;;;;44.28;25.95;;;;;;;;;;5079577;28;24411;-53
2022/03/04 06:21:49;;;;;;;34.30;23.30;;;;;;;;;;5073379;28;24435;-53
2022/03/04 06:24:14;;;;;;;37.55;22.77;;;;;;;;;;5065879;28;24419;-52
2022/03/04 06:26:40;;;;;;;29.00;20.73;;;;;;;;;;5067813;28;24446;-52
2022/03/04 06:29:05;;;;;;;35.05;22.98;;;;;;;;;;5067969;28;24448;-53
2022/03/04 06:31:30;;;;;;;30.10;19.60;;;;;;;;;;5068352;28;24419;-53
2022/03/04 06:33:55;;;;;;;37.15;23.33;;;;;;;;;;5066830;28;24395;-53
2022/03/04 06:36:21;;;;;;;32.72;21.10;;;;;;;;;;5067783;28;24395;-53
2022/03/04 06:38:46;;;;;;;35.17;22.25;;;;;;;;;;5068173;28;25000;-52
2022/03/04 06:41:11;;;;;;;31.07;20.90;;;;;;;;;;5067905;28;24439;-53
2022/03/04 06:43:38;;;;;;;31.80;21.97;;;;;;;;;;5066429;28;24405;-53
2022/03/04 06:46:03;;;;;;;31.98;21.45;;;;;;;;;;5068767;28;24456;-52
2022/03/04 06:48:30;;;;;;;30.80;20.88;;;;;;;;;;5068075;28;22257;-53
2022/03/04 06:50:56;;;;;;;33.50;20.70;;;;;;;;;;5066707;28;24418;-51
2022/03/04 06:53:21;;;;;;;30.98;21.20;;;;;;;;;;5068106;28;24407;-52
2022/03/04 06:55:47;;;;;;;28.42;20.70;;;;;;;;;;5069212;28;24552;-52
2022/03/04 06:58:12;;;;;;;25.13;17.77;;;;;;;;;;5066680;28;24415;-52
2022/03/04 07:00:39;;;;;;;25.90;16.80;;;;;;;;;;5069296;28;24418;-52
2022/03/04 07:03:04;;;;;;;34.55;21.08;;;;;;;;;;5075222;28;24899;-52
2022/03/04 07:05:30;;;;;;;27.60;17.13;;;;;;;;;;5067095;28;24538;-56
2022/03/04 07:07:55;;;;;;;29.70;18.90;;;;;;;;;;5067449;28;24464;-52
2022/03/04 07:10:21;;;;;;;27.50;18.07;;;;;;;;;;5071840;28;24769;-52
2022/03/04 07:12:46;;;;;;;31.33;18.57;;;;;;;;;;5067135;28;24464;-52
2022/03/04 07:15:12;;;;;;;28.97;18.80;;;;;;;;;;5064441;28;24426;-53
2022/03/04 07:17:37;;;;;;;28.63;18.00;;;;;;;;;;5066707;28;25069;-53
2022/03/04 07:20:03;;;;;;;26.23;17.25;;;;;;;;;;5065341;28;24488;-52
2022/03/04 07:22:28;;;;;;;27.40;18.37;;;;;;;;;;5070075;28;25185;-52
2022/03/04 07:24:53;;;;;;;27.88;18.77;;;;;;;;;;5066253;28;25036;-53
2022/03/04 07:27:18;;;;;;;26.77;18.05;;;;;;;;;;5063383;28;24992;-51
2022/03/04 07:29:43;;;;;;;29.10;18.75;;;;;;;;;;5063768;28;24462;-52
2022/03/04 07:32:08;;;;;;;26.73;17.15;;;;;;;;;;5063758;28;24461;-51
2022/03/04 07:34:34;;;;;;;26.77;18.02;;;;;;;;;;5057252;28;25035;-52
2022/03/04 07:36:59;;;;;;;27.48;17.60;;;;;;;;;;5060803;28;24438;-51
2022/03/04 07:39:24;;;;;;;28.43;18.30;;;;;;;;;;5066455;28;24429;-52
2022/03/04 07:41:50;;;;;;;30.57;18.13;;;;;;;;;;5066079;28;25080;-52
2022/03/04 07:44:15;;;;;;;25.30;16.95;;;;;;;;;;5070726;28;24426;-51
2022/03/04 07:46:40;;;;;;;26.13;17.70;;;;;;;;;;5065488;28;24410;-52
2022/03/04 07:49:06;;;;;;;23.40;16.17;;;;;;;;;;5065256;28;24406;-52
2022/03/04 07:51:31;;;;;;;24.75;16.40;;;;;;;;;;5066027;28;24394;-52
2022/03/04 07:53:56;;;;;;;27.97;16.60;;;;;;;;;;5066352;28;24399;-52
2022/03/04 07:56:22;;;;;;;24.57;16.00;;;;;;;;;;5065371;28;25189;-51
2022/03/04 07:58:47;;;;;;;27.87;16.90;;;;;;;;;;5066967;28;24401;-52
2022/03/04 08:01:12;;;;;;;26.63;16.90;;;;;;;;;;5064983;28;24434;-52
2022/03/04 08:03:37;;;;;;;25.05;17.27;;;;;;;;;;5065081;28;24394;-52
2022/03/04 08:06:02;;;;;;;28.40;17.10;;;;;;;;;;5065017;28;24548;-52
2022/03/04 08:08:28;;;;;;;30.00;17.67;;;;;;;;;;5064649;28;24382;-52
2022/03/04 08:10:54;;;;;;;26.97;16.57;;;;;;;;;;5066617;28;24756;-51
2022/03/04 08:13:19;;;;;;;28.60;18.00;;;;;;;;;;5065851;28;24580;-52
2022/03/04 08:15:44;;;;;;;29.07;17.60;;;;;;;;;;5066316;28;24824;-53
2022/03/04 08:18:10;;;;;;;25.98;16.42;;;;;;;;;;5064075;28;24422;-52
2022/03/04 08:20:35;;;;;;;28.30;17.93;;;;;;;;;;5066636;28;24387;-52
2022/03/04 08:23:00;;;;;;;28.23;17.70;;;;;;;;;;5064318;28;24414;-51
2022/03/04 08:25:25;;;;;;;29.20;18.10;;;;;;;;;;5066763;28;24788;-53
2022/03/04 08:27:51;;;;;;;29.63;17.27;;;;;;;;;;5064700;28;24509;-53
2022/03/04 08:30:16;;;;;;;26.70;16.90;;;;;;;;;;5064448;28;24791;-52
2022/03/04 08:32:41;;;;;;;26.90;16.60;;;;;;;;;;5064817;28;24399;-52
2022/03/04 08:35:08;;;;;;;30.27;18.10;;;;;;;;;;5066944;28;24422;-52
2022/03/04 08:37:33;;;;;;;27.95;19.08;;;;;;;;;;5064049;28;24916;-53
2022/03/04 08:39:58;;;;;;;27.30;17.40;;;;;;;;;;5066068;28;24426;-52
2022/03/04 08:42:24;;;;;;;31.13;20.47;;;;;;;;;;5066183;28;25059;-52
2022/03/04 08:44:49;;;;;;;32.85;19.65;;;;;;;;;;5066436;28;24999;-52
2022/03/04 08:47:14;;;;;;;29.33;18.13;;;;;;;;;;5066285;28;24390;-52
2022/03/04 08:49:40;;;;;;;29.83;20.10;;;;;;;;;;5066075;28;24414;-52
2022/03/04 08:52:06;;;;;;;26.77;19.10;;;;;;;;;;5066066;28;24401;-52
2022/03/04 08:54:31;;;;;;;27.02;18.40;;;;;;;;;;5066453;28;24375;-52
2022/03/04 08:56:56;;;;;;;29.93;18.20;;;;;;;;;;5066346;28;24406;-52
2022/03/04 08:59:22;;;;;;;30.17;19.15;;;;;;;;;;5063859;28;24911;-52
2022/03/04 09:01:47;;;;;;;27.15;17.33;;;;;;;;;;5065923;28;24765;-52
2022/03/04 09:04:17;;;;;;;31.27;18.85;;;;;;;;;;5065513;28;24466;-52
2022/03/04 09:06:42;;;;;;;32.50;19.98;;;;;;;;;;5064524;28;24410;-51
2022/03/04 09:09:07;;;;;;;29.20;18.20;;;;;;;;;;5064176;28;24437;-52
2022/03/04 09:11:32;;;;;;;31.83;19.35;;;;;;;;;;5064181;28;25187;-52
2022/03/04 09:13:58;;;;;;;31.10;20.02;;;;;;;;;;5065803;28;24970;-52
2022/03/04 09:16:23;;;;;;;34.77;20.47;;;;;;;;;;5066018;28;24406;-52
2022/03/04 09:18:48;;;;;;;31.90;18.20;;;;;;;;;;5066466;28;24897;-52
2022/03/04 09:21:13;;;;;;;36.67;20.98;;;;;;;;;;5065738;28;24560;-51
2022/03/04 09:23:38;;;;;;;30.80;19.10;;;;;;;;;;5065691;28;24411;-52
2022/03/04 09:26:04;;;;;;;31.80;20.33;;;;;;;;;;5065810;28;25091;-52
2022/03/04 09:28:29;;;;;;;32.90;19.57;;;;;;;;;;5069897;28;24386;-52
2022/03/04 09:30:54;;;;;;;32.83;21.73;;;;;;;;;;5068021;28;24780;-51
2022/03/04 09:33:20;;;;;;;34.03;19.40;;;;;;;;;;5069343;28;24445;-52
2022/03/04 09:35:45;;;;;;;32.87;19.90;;;;;;;;;;5067886;28;24912;-52
2022/03/04 09:38:10;;;;;;;30.70;19.52;;;;;;;;;;5069310;28;24415;-51
2022/03/04 09:40:36;;;;;;;29.80;19.20;;;;;;;;;;5067721;28;24411;-52
2022/03/04 09:43:04;;;;;;;32.28;19.05;;;;;;;;;;5067494;28;24406;-52
2022/03/04 09:45:30;;;;;;;28.65;19.02;;;;;;;;;;5069420;28;24415;-52
2022/03/04 09:47:55;;;;;;;30.90;19.10;;;;;;;;;;5067989;28;24421;-52
2022/03/04 09:50:21;;;;;;;31.70;20.07;;;;;;;;;;5067438;28;24393;-52
2022/03/04 09:52:46;;;;;;;27.87;18.10;;;;;;;;;;5069402;28;24387;-52
2022/03/04 09:55:11;;;;;;;29.47;18.50;;;;;;;;;;5067412;28;24426;-52
2022/03/04 09:57:37;;;;;;;30.93;18.00;;;;;;;;;;5067363;28;24452;-52
2022/03/04 10:00:04;;;;;;;30.37;19.03;;;;;;;;;;5068828;28;24532;-52
2022/03/04 10:02:32;;;;;;;26.45;17.80;;;;;;;;;;5069155;28;24419;-52
2022/03/04 10:04:58;;;;;;;26.30;17.70;;;;;;;;;;5067746;28;24515;-51
2022/03/04 10:07:23;;;;;;;27.13;18.13;;;;;;;;;;5067349;28;24406;-52
2022/03/04 10:09:49;;;;;;;27.80;17.30;;;;;;;;;;5067351;28;24789;-52
2022/03/04 10:12:18;;;;;;;26.73;18.70;;;;;;;;;;5067245;28;24412;-51
2022/03/04 10:14:57;;;;;;;29.35;19.10;;;;;;;;;;5068664;28;24383;-52
2022/03/04 10:17:23;;;;;;;24.77;17.75;;;;;;;;;;5066910;28;24429;-52
2022/03/04 10:19:52;;;;;;;26.40;17.70;;;;;;;;;;5066550;28;24578;-52
2022/03/04 10:22:17;;;;;;;27.00;17.38;;;;;;;;;;5069001;28;24524;-51
2022/03/04 10:24:42;;;;;;;28.85;18.60;;;;;;;;;;5067476;28;24470;-51
2022/03/04 10:27:09;;;;;;;24.60;16.98;;;;;;;;;;5068717;28;24383;-51
2022/03/04 10:29:39;;;;;;;26.45;16.95;;;;;;;;;;5066246;28;24480;-52
2022/03/04 10:32:09;;;;;;;25.50;16.27;;;;;;;;;;5068531;28;24406;-52
2022/03/04 10:34:48;;;;;;;26.65;16.25;;;;;;;;;;5068854;28;24398;-52
2022/03/04 10:37:13;;;;;;;31.65;18.50;;;;;;;;;;5068217;28;24422;-51
2022/03/04 10:39:58;;;;;;;28.40;17.90;;;;;;;;;;5067584;28;24944;-52
2022/03/04 10:42:38;;;;;;;31.05;18.95;;;;;;;;;;5067968;28;24438;-51
2022/03/04 10:45:06;;;;;;;26.50;16.77;;;;;;;;;;5068463;28;24804;-52
2022/03/04 10:47:40;;;;;;;26.73;17.43;;;;;;;;;;5068630;28;24395;-52
2022/03/04 10:50:05;;;;;;;23.95;16.83;;;;;;;;;;5067764;28;24386;-52
2022/03/04 10:52:31;;;;;;;24.92;15.60;;;;;;;;;;5068364;28;24391;-52
2022/03/04 10:54:56;;;;;;;23.13;15.53;;;;;;;;;;5068511;28;24560;-51
2022/03/04 10:57:21;;;;;;;23.88;16.15;;;;;;;;;;5067949;28;24409;-52
2022/03/04 10:59:56;;;;;;;23.80;16.20;;;;;;;;;;5068240;28;24895;-51
2022/03/04 11:02:42;;;;;;;23.47;16.30;;;;;;;;;;5067179;28;24418;-53
2022/03/04 11:05:08;;;;;;;22.27;16.27;;;;;;;;;;5067626;28;24431;-51
2022/03/04 11:07:35;;;;;;;26.25;16.27;;;;;;;;;;5067785;28;24390;-52
2022/03/04 11:10:01;;;;;;;23.90;17.13;;;;;;;;;;5067482;28;24407;-52
2022/03/04 11:12:27;;;;;;;25.23;16.95;;;;;;;;;;5065995;28;24898;-51
2022/03/04 11:14:52;;;;;;;29.45;18.50;;;;;;;;;;5067822;28;25003;-52
2022/03/04 11:17:18;;;;;;;29.83;19.42;;;;;;;;;;5067218;28;24413;-51
2022/03/04 11:19:43;;;;;;;31.45;18.65;;;;;;;;;;5066900;28;24473;-52
2022/03/04 11:22:10;;;;;;;28.67;18.90;;;;;;;;;;5067437;28;24766;-53
2022/03/04 11:24:36;;;;;;;31.05;20.27;;;;;;;;;;5067482;28;24742;-52
2022/03/04 11:27:04;;;;;;;37.47;22.10;;;;;;;;;;5067678;28;24546;-53
2022/03/04 11:29:34;;;;;;;28.75;19.55;;;;;;;;;;5067148;28;24415;-52
2022/03/04 11:31:59;;;;;;;34.90;22.00;;;;;;;;;;5065725;28;24395;-53
2022/03/04 11:34:32;;;;;;;33.70;20.67;;;;;;;;;;5065376;28;24429;-52
2022/03/04 11:37:03;;;;;;;34.88;21.48;;;;;;;;;;5065736;28;24564;-53
2022/03/04 11:39:29;;;;;;;30.42;21.10;;;;;;;;;;5067045;28;24414;-52
2022/03/04 11:41:54;;;;;;;33.20;20.40;;;;;;;;;;5063325;28;24476;-53
2022/03/04 11:44:20;;;;;;;36.20;21.83;;;;;;;;;;5066572;28;24389;-52
2022/03/04 11:46:45;;;;;;;32.90;21.47;;;;;;;;;;5065664;28;24386;-52
2022/03/04 11:49:29;;;;;;;32.80;20.97;;;;;;;;;;5065991;28;24591;-52
2022/03/04 11:52:10;;;;;;;29.42;20.67;;;;;;;;;;5065331;28;24403;-52
2022/03/04 11:54:51;;;;;;;32.88;20.65;;;;;;;;;;5065241;28;24395;-53
2022/03/04 11:57:17;;;;;;;37.90;23.73;;;;;;;;;;5066464;28;24395;-52
2022/03/04 11:59:49;;;;;;;38.22;23.55;;;;;;;;;;5066475;28;24943;-52
2022/03/04 12:02:21;;;;;;;32.00;21.17;;;;;;;;;;5066387;28;24503;-53
2022/03/04 12:04:46;;;;;;;33.57;20.90;;;;;;;;;;5066596;28;24387;-52
2022/03/04 12:07:12;;;;;;;30.40;20.33;;;;;;;;;;5066486;28;24398;-53
2022/03/04 12:09:46;;;;;;;29.60;19.80;;;;;;;;;;5064421;28;24960;-53
2022/03/04 12:12:12;;;;;;;26.67;19.17;;;;;;;;;;5065273;28;24407;-52
2022/03/04 12:14:52;;;;;;;28.15;19.58;;;;;;;;;;5064676;28;24482;-52
2022/03/04 12:17:17;;;;;;;30.00;18.90;;;;;;;;;;5066361;28;25050;-53
2022/03/04 12:19:43;;;;;;;27.23;18.75;;;;;;;;;;5064273;28;24439;-52
2022/03/04 12:22:10;;;;;;;32.63;20.93;;;;;;;;;;5066175;28;24823;-52
2022/03/04 12:24:36;;;;;;;26.98;18.02;;;;;;;;;;5064386;28;24423;-52
2022/03/04 12:27:02;;;;;;;26.43;17.80;;;;;;;;;;5066105;28;25199;-52
2022/03/04 12:29:44;;;;;;;24.45;17.70;;;;;;;;;;5064435;28;25108;-52
2022/03/04 12:32:09;;;;;;;28.38;17.80;;;;;;;;;;5065747;28;24489;-52
2022/03/04 12:34:37;;;;;;;29.00;19.10;;;;;;;;;;5055229;28;24831;-52
2022/03/04 12:37:08;;;;;;;29.38;20.23;;;;;;;;;;5066089;28;25025;-52
2022/03/04 12:39:37;;;;;;;32.45;21.55;;;;;;;;;;5063755;28;24975;-53
2022/03/04 12:42:02;;;;;;;39.05;23.73;;;;;;;;;;5064337;28;24447;-52
2022/03/04 12:44:28;;;;;;;36.57;23.80;;;;;;;;;;5051168;28;24423;-52
2022/03/04 12:46:53;;;;;;;26.60;19.47;;;;;;;;;;5046140;28;24390;-52
2022/03/04 12:49:25;;;;;;;28.20;18.92;;;;;;;;;;5054976;28;24509;-52
2022/03/04 12:51:51;;;;;;;28.75;18.73;;;;;;;;;;5066261;28;24415;-52
2022/03/04 12:54:18;;;;;;;26.25;17.90;;;;;;;;;;5064745;28;24671;-52
2022/03/04 12:56:50;;;;;;;24.00;17.50;;;;;;;;;;5066642;28;24532;-52
2022/03/04 12:59:15;;;;;;;28.65;19.10;;;;;;;;;;5062357;28;24782;-52
2022/03/04 13:01:44;;;;;;;29.25;18.73;;;;;;;;;;5069405;28;24979;-53
2022/03/04 13:04:09;;;;;;;27.93;19.03;;;;;;;;;;5066897;28;25190;-53
2022/03/04 13:06:35;;;;;;;26.70;17.50;;;;;;;;;;5070024;28;24551;-52
2022/03/04 13:09:04;;;;;;;26.38;17.50;;;;;;;;;;5067086;28;24446;-52
2022/03/04 13:11:36;;;;;;;24.98;15.90;;;;;;;;;;5069753;28;24422;-52
2022/03/04 13:14:05;;;;;;;29.42;18.05;;;;;;;;;;5066590;28;24875;-53
2022/03/04 13:16:42;;;;;;;26.90;17.23;;;;;;;;;;5069621;28;24407;-52
2022/03/04 13:19:08;;;;;;;28.98;17.98;;;;;;;;;;5048608;28;24415;-53
2022/03/04 13:21:41;;;;;;;27.60;16.60;;;;;;;;;;5058021;28;24418;-53
2022/03/04 13:24:08;;;;;;;21.55;15.00;;;;;;;;;;5048249;28;24474;-53
2022/03/04 13:26:33;;;;;;;25.67;17.20;;;;;;;;;;5047944;28;24379;-53
2022/03/04 13:29:00;;;;;;;25.40;17.43;;;;;;;;;;5049027;28;24406;-52
2022/03/04 13:31:29;;;;;;;25.50;17.02;;;;;;;;;;5052640;28;24468;-52
2022/03/04 13:33:55;;;;;;;24.88;16.95;;;;;;;;;;5068097;28;24464;-53
2022/03/04 13:36:36;;;;;;;23.17;16.45;;;;;;;;;;5062391;28;24439;-53
2022/03/04 13:39:08;;;;;;;26.27;16.80;;;;;;;;;;5048557;28;24399;-52
2022/03/04 13:41:34;;;;;;;22.23;16.00;;;;;;;;;;5055228;28;24439;-52
2022/03/04 13:44:06;;;;;;;27.83;16.63;;;;;;;;;;5067449;28;24391;-53
2022/03/04 13:46:32;;;;;;;23.10;16.85;;;;;;;;;;5057742;28;24416;-52
2022/03/04 13:48:57;;;;;;;22.10;15.13;;;;;;;;;;5048582;28;24403;-52
2022/03/04 13:51:22;;;;;;;19.60;15.20;;;;;;;;;;5062618;28;24604;-53
2022/03/04 13:53:54;;;;;;;18.87;14.17;;;;;;;;;;5066906;28;24403;-52
2022/03/04 13:56:21;;;;;;;17.42;13.48;;;;;;;;;;5056813;28;24933;-52
2022/03/04 13:58:54;;;;;;;18.20;13.87;;;;;;;;;;5048870;28;24427;-52
2022/03/04 14:01:20;;;;;;;20.35;14.00;;;;;;;;;;5057963;28;24491;-52
2022/03/04 14:03:46;;;;;;;19.90;15.20;;;;;;;;;;5066888;28;24419;-53
2022/03/04 14:06:12;;;;;;;20.00;13.70;;;;;;;;;;5056533;28;24553;-53
2022/03/04 14:08:37;;;;;;;18.70;14.10;;;;;;;;;;5047272;28;25381;-52
2022/03/04 14:11:04;;;;;;;20.20;14.60;;;;;;;;;;5047742;28;24774;-52